Time,TemperatureF,DewpointF,PressureIn,WindDirection,WindDirectionDegrees,WindSpeedMPH,WindSpeedGustMPH,Humidity,HourlyPrecipIn,Conditions,Clouds,dailyrainin,SolarRadiationWatts/m^2,SoftwareType,DateUTC
2014-09-22 00:00:00,53.5,49.7,30.36,North,0,1.0,5.0,87,0.00,,,0.00,0,WeatherCatV2.00B4410,2014-09-22 06:00:00,
2014-09-22 00:05:00,53.5,49.7,30.36,North,0,0.0,0.0,87,0.00,,,0.00,0,WeatherCatV2.00B4410,2014-09-22 06:05:00,
2014-09-22 00:10:00,53.5,49.7,30.36,North,0,0.0,0.0,87,0.00,,,0.00,0,WeatherCatV2.00B4410,2014-09-22 06:10:00,
2014-09-22 00:15:00,53.5,49.7,30.36,North,0,0.0,0.0,87,0.00,,,0.00,0,WeatherCatV2.00B4410,2014-09-22 06:15:00,
2014-09-22 00:20:00,53.6,50.1,30.35,North,0,0.0,0.0,88,0.00,,,0.00,0,WeatherCatV2.00B4410,2014-09-22 06:20:00,
2014-09-22 00:25:00,53.5,50.0,30.35,North,0,0.0,0.0,88,0.00,,,0.00,0,WeatherCatV2.00B4410,2014-09-22 06:25:00,
2014-09-22 00:30:00,53.6,50.1,30.35,North,0,0.0,0.0,88,0.00,,,0.00,0,WeatherCatV2.00B4410,2014-09-22 06:30:00,
2014-09-22 00:35:00,53.6,50.1,30.35,North,0,0.0,0.0,88,0.00,,,0.00,0,WeatherCatV2.00B4410,2014-09-22 06:35:00,
2014-09-22 00:40:00,53.6,50.4,30.35,North,0,0.0,0.0,89,0.00,,,0.00,0,WeatherCatV2.00B4410,2014-09-22 06:40:00,
2014-09-22 00:45:00,53.6,50.1,30.35,North,0,0.0,0.0,88,0.00,,,0.00,0,WeatherCatV2.00B4410,2014-09-22 06:45:00,
2014-09-22 00:50:00,53.5,50.0,30.35,North,0,0.0,0.0,88,0.00,,,0.00,0,WeatherCatV2.00B4410,2014-09-22 06:50:00,
2014-09-22 00:55:00,53.5,50.0,30.35,North,0,0.0,0.0,88,0.00,,,0.00,0,WeatherCatV2.00B4410,2014-09-22 06:55:00,
2014-09-22 01:00:00,53.3,49.8,30.35,North,0,0.0,0.0,88,0.00,,,0.00,0,WeatherCatV2.00B4410,2014-09-22 07:00:00,
2014-09-22 01:05:00,53.3,49.8,30.35,North,0,0.0,0.0,88,0.00,,,0.00,0,WeatherCatV2.00B4410,2014-09-22 07:05:00,
2014-09-22 01:10:00,53.3,49.8,30.35,North,0,0.0,0.0,88,0.00,,,0.00,0,WeatherCatV2.00B4410,2014-09-22 07:10:00,
2014-09-22 01:15:00,53.3,50.1,30.35,North,0,0.0,0.0,89,0.00,,,0.00,0,WeatherCatV2.00B4410,2014-09-22 07:15:00,
2014-09-22 01:20:00,53.5,50.3,30.35,North,0,0.0,0.0,89,0.00,,,0.00,0,WeatherCatV2.00B4410,2014-09-22 07:20:00,
2014-09-22 01:25:00,53.2,49.7,30.35,North,0,1.0,3.0,88,0.00,,,0.00,0,WeatherCatV2.00B4410,2014-09-22 07:25:00,
2014-09-22 01:30:00,53.1,49.6,30.35,North,0,0.0,2.0,88,0.00,,,0.00,0,WeatherCatV2.00B4410,2014-09-22 07:30:00,
2014-09-22 01:35:00,53.1,49.6,30.35,North,0,1.0,3.0,88,0.00,,,0.00,0,WeatherCatV2.00B4410,2014-09-22 07:35:00,
2014-09-22 01:40:00,52.9,49.4,30.35,North,0,0.0,0.0,88,0.00,,,0.00,0,WeatherCatV2.00B4410,2014-09-22 07:40:00,
2014-09-22 01:45:00,52.9,49.4,30.35,North,0,0.0,0.0,88,0.00,,,0.00,0,WeatherCatV2.00B4410,2014-09-22 07:45:00,
2014-09-22 01:50:00,52.8,49.3,30.35,North,0,1.0,4.0,88,0.00,,,0.00,0,WeatherCatV2.00B4410,2014-09-22 07:50:00,
2014-09-22 01:55:00,52.8,49.6,30.35,North,0,0.0,5.0,89,0.00,,,0.00,0,WeatherCatV2.00B4410,2014-09-22 07:55:00,
2014-09-22 02:00:00,52.8,49.3,30.35,North,0,0.0,0.0,88,0.00,,,0.00,0,WeatherCatV2.00B4410,2014-09-22 08:00:00,
2014-09-22 02:05:00,52.8,49.3,30.35,North,0,0.0,0.0,88,0.00,,,0.00,0,WeatherCatV2.00B4410,2014-09-22 08:05:00,
2014-09-22 02:10:00,52.6,49.2,30.35,North,0,0.0,0.0,88,0.00,,,0.00,0,WeatherCatV2.00B4410,2014-09-22 08:10:00,
2014-09-22 02:15:00,52.6,49.4,30.35,North,0,0.0,0.0,89,0.00,,,0.00,0,WeatherCatV2.00B4410,2014-09-22 08:15:00,
2014-09-22 02:20:00,52.6,49.4,30.34,North,0,0.0,0.0,89,0.00,,,0.00,0,WeatherCatV2.00B4410,2014-09-22 08:20:00,
2014-09-22 02:25:00,52.6,49.2,30.34,North,0,0.0,0.0,88,0.00,,,0.00,0,WeatherCatV2.00B4410,2014-09-22 08:25:00,
2014-09-22 02:30:00,52.6,49.2,30.34,North,0,0.0,0.0,88,0.00,,,0.00,0,WeatherCatV2.00B4410,2014-09-22 08:30:00,
2014-09-22 02:35:00,52.6,49.2,30.34,North,0,0.0,1.0,88,0.00,,,0.00,0,WeatherCatV2.00B4410,2014-09-22 08:35:00,
2014-09-22 02:40:00,52.5,49.0,30.34,North,0,0.0,0.0,88,0.00,,,0.00,0,WeatherCatV2.00B4410,2014-09-22 08:40:00,
2014-09-22 02:45:00,52.6,49.2,30.34,North,0,0.0,0.0,88,0.00,,,0.00,0,WeatherCatV2.00B4410,2014-09-22 08:45:00,
2014-09-22 02:50:00,52.5,49.0,30.33,North,0,0.0,0.0,88,0.00,,,0.00,0,WeatherCatV2.00B4410,2014-09-22 08:50:00,
2014-09-22 02:55:00,52.5,49.0,30.33,North,0,0.0,0.0,88,0.00,,,0.00,0,WeatherCatV2.00B4410,2014-09-22 08:55:00,
2014-09-22 03:00:00,52.5,49.3,30.33,North,0,0.0,0.0,89,0.00,,,0.00,0,WeatherCatV2.00B4410,2014-09-22 09:00:00,
2014-09-22 03:05:00,52.5,49.3,30.33,North,0,0.0,0.0,89,0.00,,,0.00,0,WeatherCatV2.00B4410,2014-09-22 09:05:00,
2014-09-22 03:10:00,52.5,49.3,30.33,North,0,0.0,0.0,89,0.00,,,0.00,0,WeatherCatV2.00B4410,2014-09-22 09:10:00,
2014-09-22 03:15:00,52.5,49.3,30.33,North,0,0.0,0.0,89,0.00,,,0.00,0,WeatherCatV2.00B4410,2014-09-22 09:15:00,
2014-09-22 03:20:00,52.3,49.2,30.34,North,0,0.0,0.0,89,0.00,,,0.00,0,WeatherCatV2.00B4410,2014-09-22 09:20:00,
2014-09-22 03:25:00,52.3,49.2,30.34,North,0,0.0,0.0,89,0.00,,,0.00,0,WeatherCatV2.00B4410,2014-09-22 09:25:00,
2014-09-22 03:30:00,52.3,49.2,30.34,North,0,0.0,0.0,89,0.00,,,0.00,0,WeatherCatV2.00B4410,2014-09-22 09:30:00,
2014-09-22 03:35:00,52.3,49.2,30.33,North,0,0.0,0.0,89,0.00,,,0.00,0,WeatherCatV2.00B4410,2014-09-22 09:35:00,
2014-09-22 03:40:00,52.3,49.2,30.33,North,0,0.0,0.0,89,0.00,,,0.00,0,WeatherCatV2.00B4410,2014-09-22 09:40:00,
2014-09-22 03:45:00,52.3,49.5,30.33,North,0,0.0,0.0,90,0.00,,,0.00,0,WeatherCatV2.00B4410,2014-09-22 09:45:00,
2014-09-22 03:50:00,52.3,49.5,30.33,North,0,0.0,0.0,90,0.00,,,0.00,0,WeatherCatV2.00B4410,2014-09-22 09:50:00,
2014-09-22 03:55:00,52.3,49.5,30.33,North,0,0.0,0.0,90,0.00,,,0.00,0,WeatherCatV2.00B4410,2014-09-22 09:55:00,
2014-09-22 04:00:00,52.3,49.5,30.33,North,0,0.0,0.0,90,0.00,,,0.00,0,WeatherCatV2.00B4410,2014-09-22 10:00:00,
2014-09-22 04:05:00,52.3,49.5,30.33,North,0,0.0,0.0,90,0.00,,,0.00,0,WeatherCatV2.00B4410,2014-09-22 10:05:00,
2014-09-22 04:10:00,52.3,49.5,30.33,North,0,0.0,0.0,90,0.00,,,0.00,0,WeatherCatV2.00B4410,2014-09-22 10:10:00,
2014-09-22 04:15:00,52.3,49.5,30.33,North,0,0.0,0.0,90,0.00,,,0.00,0,WeatherCatV2.00B4410,2014-09-22 10:15:00,
2014-09-22 04:20:00,52.2,49.3,30.33,North,0,0.0,0.0,90,0.00,,,0.00,0,WeatherCatV2.00B4410,2014-09-22 10:20:00,
2014-09-22 04:25:00,52.2,49.3,30.33,North,0,0.0,0.0,90,0.00,,,0.00,0,WeatherCatV2.00B4410,2014-09-22 10:25:00,
2014-09-22 04:30:00,52.3,49.8,30.33,North,0,0.0,0.0,91,0.00,,,0.00,0,WeatherCatV2.00B4410,2014-09-22 10:30:00,
2014-09-22 04:35:00,52.3,49.8,30.33,North,0,0.0,0.0,91,0.00,,,0.00,0,WeatherCatV2.00B4410,2014-09-22 10:35:00,
2014-09-22 04:40:00,52.2,49.7,30.32,North,0,0.0,1.0,91,0.00,,,0.00,0,WeatherCatV2.00B4410,2014-09-22 10:40:00,
2014-09-22 04:45:00,52.2,49.7,30.32,North,0,0.0,0.0,91,0.00,,,0.00,0,WeatherCatV2.00B4410,2014-09-22 10:45:00,
2014-09-22 04:50:00,52.0,49.5,30.32,North,0,0.0,0.0,91,0.00,,,0.00,0,WeatherCatV2.00B4410,2014-09-22 10:50:00,
2014-09-22 04:55:00,52.0,49.5,30.32,North,0,0.0,0.0,91,0.00,,,0.00,0,WeatherCatV2.00B4410,2014-09-22 10:55:00,
2014-09-22 05:00:00,52.0,49.5,30.32,North,0,0.0,0.0,91,0.00,,,0.00,0,WeatherCatV2.00B4410,2014-09-22 11:00:00,
2014-09-22 05:10:00,51.9,49.3,30.32,North,7,0.0,0.0,91,0.00,,,0.00,0,WeatherCatV2.00B4410,2014-09-22 11:10:00,
2014-09-22 05:15:00,51.9,49.3,30.32,North,7,0.0,0.0,91,0.00,,,0.03,0,WeatherCatV2.00B4410,2014-09-22 11:15:00,
2014-09-22 05:20:00,51.7,49.2,30.32,North,7,3.0,3.0,91,0.00,,,0.03,0,WeatherCatV2.00B4410,2014-09-22 11:20:00,
2014-09-22 05:25:00,51.6,49.1,30.32,North,7,0.0,0.0,91,0.00,,,0.03,0,WeatherCatV2.00B4410,2014-09-22 11:25:00,
2014-09-22 05:30:00,51.6,49.1,30.32,North,7,5.0,5.0,91,0.00,,,0.03,0,WeatherCatV2.00B4410,2014-09-22 11:30:00,
2014-09-22 05:35:00,51.6,49.1,30.32,North,7,3.0,4.0,91,0.00,,,0.03,0,WeatherCatV2.00B4410,2014-09-22 11:35:00,
2014-09-22 05:40:00,51.6,49.3,30.32,North,7,0.0,0.0,92,0.00,,,0.03,0,WeatherCatV2.00B4410,2014-09-22 11:40:00,